Time;durP1;ratioP1;P1;durP2;ratioP2;P2;SDS_P1;SDS_P2;PMS_P1;PMS_P2;Temp;Humidity;BMP_temperature;BMP_pressure;BME280_temperature;BME280_humidity;BME280_pressure;Samples;Min_cycle;Max_cycle;Signal;HPM_P1;HPM_P2
2021/04/18 00:00:37;;;;;;;10.60;5.25;;;9.00;83.30;;;;;;3557449;40;20037;-67
2021/04/18 00:03:03;;;;;;;13.40;6.22;;;9.00;83.10;;;;;;3557600;40;20041;-68
2021/04/18 00:05:29;;;;;;;9.95;5.20;;;9.00;83.10;;;;;;3556422;40;20040;-66
2021/04/18 00:08:02;;;;;;;11.13;5.40;;;9.10;83.00;;;;;;3556948;40;20037;-67
2021/04/18 00:10:30;;;;;;;11.30;5.38;;;9.20;82.80;;;;;;3557056;40;20774;-67
2021/04/18 00:12:56;;;;;;;8.45;4.82;;;9.20;82.60;;;;;;3555594;40;20045;-67
2021/04/18 00:15:22;;;;;;;8.60;5.32;;;9.20;82.70;;;;;;3557616;40;20036;-67
2021/04/18 00:17:48;;;;;;;8.40;5.55;;;9.30;82.70;;;;;;3554017;40;20312;-67
2021/04/18 00:20:14;;;;;;;9.00;5.40;;;9.40;83.40;;;;;;3558683;40;20030;-63
2021/04/18 00:22:40;;;;;;;10.55;5.07;;;9.40;82.70;;;;;;3560219;40;20096;-63
2021/04/18 00:25:08;;;;;;;9.40;5.00;;;9.40;82.40;;;;;;3558445;40;20048;-62
2021/04/18 00:27:33;;;;;;;11.50;5.72;;;9.40;82.50;;;;;;3558008;40;20036;-62
2021/04/18 00:29:59;;;;;;;10.68;5.68;;;9.50;82.40;;;;;;3557162;40;20029;-63
2021/04/18 00:32:25;;;;;;;10.65;5.30;;;9.50;82.00;;;;;;3558815;40;20033;-63
2021/04/18 00:34:50;;;;;;;12.52;5.28;;;9.50;81.80;;;;;;3557781;40;20322;-62
2021/04/18 00:37:16;;;;;;;9.90;5.55;;;9.50;81.70;;;;;;3559102;40;20033;-63
2021/04/18 00:39:42;;;;;;;9.40;5.07;;;9.50;81.80;;;;;;3559087;40;20095;-62
2021/04/18 00:42:08;;;;;;;9.32;5.30;;;9.40;82.00;;;;;;3558881;40;20756;-63
2021/04/18 00:44:34;;;;;;;12.77;5.88;;;9.40;82.00;;;;;;3559221;40;20022;-62
2021/04/18 00:46:59;;;;;;;14.68;6.28;;;9.30;81.90;;;;;;3557432;40;20018;-62
2021/04/18 00:49:25;;;;;;;13.02;6.30;;;9.20;82.00;;;;;;3558758;40;20034;-63
2021/04/18 00:51:51;;;;;;;12.05;6.00;;;9.20;81.70;;;;;;3558594;40;20136;-62
2021/04/18 00:54:16;;;;;;;13.40;6.15;;;9.10;81.60;;;;;;3558542;40;20135;-63
2021/04/18 00:56:42;;;;;;;12.80;6.18;;;9.00;81.90;;;;;;3557668;40;20029;-63
2021/04/18 00:59:08;;;;;;;11.02;5.70;;;8.90;81.60;;;;;;3559286;40;20029;-62
2021/04/18 01:01:34;;;;;;;11.60;6.32;;;8.80;82.30;;;;;;3558544;40;20100;-62
2021/04/18 01:04:00;;;;;;;13.05;5.90;;;8.70;82.80;;;;;;3557770;40;20041;-64
2021/04/18 01:06:26;;;;;;;8.65;5.68;;;8.70;82.90;;;;;;3557221;40;20026;-63
2021/04/18 01:08:52;;;;;;;12.55;5.75;;;8.60;82.70;;;;;;3558705;40;20064;-63
2021/04/18 01:11:19;;;;;;;14.82;6.28;;;8.60;83.10;;;;;;3557900;40;20049;-62
2021/04/18 01:13:45;;;;;;;12.00;6.57;;;8.50;83.20;;;;;;3557457;40;20033;-62
2021/04/18 01:16:11;;;;;;;12.32;6.68;;;8.50;83.40;;;;;;3558613;40;20091;-62
2021/04/18 01:18:37;;;;;;;14.07;6.28;;;8.50;83.50;;;;;;3558066;40;20033;-62
2021/04/18 01:21:12;;;;;;;13.65;6.72;;;8.50;83.70;;;;;;3558534;40;20089;-62
2021/04/18 01:24:06;;;;;;;14.70;6.53;;;8.50;84.10;;;;;;3556735;40;20974;-62
2021/04/18 01:26:49;;;;;;;10.43;6.32;;;8.40;84.00;;;;;;3557675;40;20045;-70
2021/04/18 01:29:15;;;;;;;11.68;5.90;;;8.50;84.10;;;;;;3558328;40;20057;-62
2021/04/18 01:31:41;;;;;;;11.07;6.30;;;8.50;84.10;;;;;;3557769;40;20025;-63
2021/04/18 01:34:11;;;;;;;14.65;6.47;;;8.50;84.30;;;;;;3558464;40;20034;-62
2021/04/18 01:36:37;;;;;;;14.30;6.80;;;8.50;84.20;;;;;;3558426;40;20787;-62
2021/04/18 01:39:03;;;;;;;11.85;5.93;;;8.60;84.40;;;;;;3558200;40;20025;-62
2021/04/18 01:41:29;;;;;;;12.88;7.30;;;8.60;84.40;;;;;;3557923;40;20037;-62
2021/04/18 01:43:56;;;;;;;13.88;6.72;;;8.60;84.20;;;;;;3556414;40;20038;-61
2021/04/18 01:46:22;;;;;;;14.40;6.18;;;8.60;84.20;;;;;;3547982;40;20045;-61
2021/04/18 01:48:48;;;;;;;10.85;6.28;;;8.70;84.40;;;;;;3557885;40;20315;-61
2021/04/18 01:51:14;;;;;;;12.50;6.22;;;8.70;84.00;;;;;;3557676;40;20048;-61
2021/04/18 01:53:40;;;;;;;12.27;5.72;;;8.70;83.80;;;;;;3558062;40;20033;-62
2021/04/18 01:56:06;;;;;;;13.45;7.32;;;8.80;83.90;;;;;;3557054;40;20042;-61
2021/04/18 01:58:35;;;;;;;12.02;6.03;;;8.80;83.70;;;;;;3556958;40;20057;-62
2021/04/18 02:01:07;;;;;;;13.20;6.90;;;8.80;84.10;;;;;;3557568;40;20869;-63
2021/04/18 02:03:37;;;;;;;11.65;6.43;;;8.90;84.20;;;;;;3557796;40;20042;-62
2021/04/18 02:06:05;;;;;;;14.00;5.95;;;9.00;84.20;;;;;;3556760;40;20033;-62
2021/04/18 02:08:38;;;;;;;12.25;6.50;;;9.00;83.80;;;;;;3554578;40;20047;-63
2021/04/18 02:11:04;;;;;;;13.68;6.25;;;9.20;83.40;;;;;;3557441;40;20034;-62
2021/04/18 02:13:31;;;;;;;12.70;6.03;;;9.20;83.10;;;;;;3555760;40;20750;-61
2021/04/18 02:16:20;;;;;;;9.52;6.10;;;9.20;83.10;;;;;;3557404;40;20061;-61
2021/04/18 02:18:59;;;;;;;9.30;6.13;;;9.20;82.90;;;;;;3557465;40;20038;-62
2021/04/18 02:21:27;;;;;;;10.52;5.85;;;9.30;82.60;;;;;;3554123;40;20033;-61
2021/04/18 02:23:54;;;;;;;9.38;6.30;;;9.30;82.30;;;;;;3556499;40;20044;-61
2021/04/18 02:26:20;;;;;;;10.40;5.75;;;9.40;82.30;;;;;;3555081;40;20528;-63
2021/04/18 02:28:49;;;;;;;14.82;6.30;;;9.40;82.00;;;;;;3555869;40;20445;-62
2021/04/18 02:31:16;;;;;;;14.50;6.72;;;9.40;81.90;;;;;;3557586;40;20035;-61
2021/04/18 02:33:42;;;;;;;12.13;6.32;;;9.50;81.80;;;;;;3559393;40;20037;-61
2021/04/18 02:36:08;;;;;;;11.80;6.82;;;9.50;81.50;;;;;;3559039;40;20624;-66
2021/04/18 02:38:35;;;;;;;12.77;6.18;;;9.50;81.80;;;;;;3563344;40;20029;-63
2021/04/18 02:41:02;;;;;;;13.43;5.65;;;9.50;81.30;;;;;;3561584;40;20038;-61
2021/04/18 02:43:28;;;;;;;13.20;5.97;;;9.50;81.60;;;;;;3560973;40;20073;-61
2021/04/18 02:45:54;;;;;;;12.25;6.25;;;9.50;81.70;;;;;;3559388;40;20034;-62
2021/04/18 02:48:20;;;;;;;10.32;6.13;;;9.60;81.80;;;;;;3557772;40;20055;-63
2021/04/18 02:50:47;;;;;;;14.45;6.63;;;9.60;81.60;;;;;;3556929;40;20061;-62
2021/04/18 02:53:13;;;;;;;13.65;6.57;;;9.60;81.50;;;;;;3556984;40;20707;-63
2021/04/18 02:55:38;;;;;;;11.65;5.60;;;9.60;81.70;;;;;;3556808;40;20037;-62
2021/04/18 02:58:13;;;;;;;11.70;6.35;;;9.60;81.50;;;;;;3555182;40;20061;-62
2021/04/18 03:00:43;;;;;;;15.88;7.50;;;9.70;81.60;;;;;;3557874;40;20040;-62
2021/04/18 03:03:09;;;;;;;13.38;6.10;;;9.70;81.60;;;;;;3555788;40;20750;-61
2021/04/18 03:05:35;;;;;;;10.38;6.15;;;9.70;81.70;;;;;;3558381;40;20446;-62
2021/04/18 03:08:06;;;;;;;12.20;6.43;;;9.70;81.80;;;;;;3558206;40;20631;-63
2021/04/18 03:10:33;;;;;;;13.13;6.25;;;9.70;81.50;;;;;;3558441;40;20728;-61
2021/04/18 03:13:01;;;;;;;11.75;6.50;;;9.70;81.30;;;;;;3558689;40;20053;-63
2021/04/18 03:15:30;;;;;;;11.65;5.95;;;9.60;81.10;;;;;;3558768;40;20032;-64
2021/04/18 03:17:57;;;;;;;13.02;6.45;;;9.70;81.40;;;;;;3557130;40;20507;-62
2021/04/18 03:20:23;;;;;;;15.45;7.18;;;9.60;81.30;;;;;;3556897;40;20053;-62
2021/04/18 03:22:50;;;;;;;18.35;7.32;;;9.60;81.30;;;;;;3557938;40;20034;-62
2021/04/18 03:25:17;;;;;;;10.73;6.20;;;9.70;81.10;;;;;;3555802;40;20030;-61
2021/04/18 03:27:46;;;;;;;13.18;6.78;;;9.70;81.20;;;;;;3556864;40;20476;-63
2021/04/18 03:30:18;;;;;;;14.05;6.35;;;9.60;80.90;;;;;;3558222;40;20049;-62
2021/04/18 03:32:51;;;;;;;13.43;6.50;;;9.60;80.80;;;;;;3557408;40;20041;-62
2021/04/18 03:35:18;;;;;;;10.75;6.30;;;9.60;81.10;;;;;;3557737;40;20048;-62
2021/04/18 03:37:46;;;;;;;11.02;5.60;;;9.70;81.10;;;;;;3556648;40;20079;-62
2021/04/18 03:40:13;;;;;;;7.93;5.30;;;9.70;81.00;;;;;;3556359;40;20049;-62
2021/04/18 03:42:39;;;;;;;12.77;5.90;;;9.70;81.00;;;;;;3556655;40;20042;-61
2021/04/18 03:45:07;;;;;;;9.13;6.53;;;9.70;80.90;;;;;;3557863;40;20037;-61
2021/04/18 03:47:34;;;;;;;13.20;6.65;;;9.60;80.20;;;;;;3556012;40;20033;-61
2021/04/18 03:50:06;;;;;;;13.02;7.15;;;9.60;80.60;;;;;;3557582;40;20030;-61
2021/04/18 03:52:55;;;;;;;16.20;7.28;;;9.60;80.60;;;;;;3558054;40;20052;-62
2021/04/18 03:55:23;;;;;;;15.35;6.47;;;9.60;81.10;;;;;;3557114;40;20678;-62
2021/04/18 03:57:50;;;;;;;12.65;6.60;;;9.60;81.40;;;;;;3557468;40;20046;-63
2021/04/18 04:00:17;;;;;;;13.15;6.85;;;9.60;81.00;;;;;;3557810;40;20044;-61
2021/04/18 04:02:43;;;;;;;13.02;6.72;;;9.60;80.80;;;;;;3557186;40;20044;-61
2021/04/18 04:05:13;;;;;;;11.82;6.03;;;9.60;80.50;;;;;;3555833;40;20111;-61
2021/04/18 04:07:39;;;;;;;19.67;6.72;;;9.60;80.40;;;;;;3557393;40;20089;-62
2021/04/18 04:10:05;;;;;;;11.23;6.05;;;9.50;80.40;;;;;;3556649;40;20037;-61
2021/04/18 04:12:33;;;;;;;14.35;6.25;;;9.50;80.30;;;;;;3556477;40;20323;-61
2021/04/18 04:14:59;;;;;;;24.90;14.38;;;9.50;80.60;;;;;;3557911;40;20037;-61
2021/04/18 04:17:26;;;;;;;26.27;16.00;;;9.50;80.60;;;;;;3556262;40;20026;-61
2021/04/18 04:20:07;;;;;;;26.27;17.98;;;9.50;80.80;;;;;;3556242;40;20076;-61
2021/04/18 04:22:56;;;;;;;25.08;15.68;;;9.50;80.70;;;;;;3556490;40;20494;-61
2021/04/18 04:25:23;;;;;;;28.88;13.70;;;9.50;80.20;;;;;;3557537;40;20052;-61
2021/04/18 04:27:48;;;;;;;21.15;11.02;;;9.50;80.30;;;;;;3557626;40;20037;-61
2021/04/18 04:30:15;;;;;;;19.33;10.32;;;9.50;80.30;;;;;;3557117;40;20029;-61
2021/04/18 04:32:40;;;;;;;18.90;10.55;;;9.60;80.30;;;;;;3557597;40;20438;-61
2021/04/18 04:35:07;;;;;;;16.83;8.93;;;9.50;80.00;;;;;;3555659;40;20041;-61
2021/04/18 04:37:33;;;;;;;20.30;8.35;;;9.50;79.80;;;;;;3547661;40;20401;-62
2021/04/18 04:39:59;;;;;;;17.02;9.20;;;9.50;80.40;;;;;;3556180;40;20120;-67
2021/04/18 04:42:25;;;;;;;19.73;9.00;;;9.50;80.90;;;;;;3557827;40;20414;-67
2021/04/18 04:44:50;;;;;;;22.48;10.10;;;9.60;80.60;;;;;;3557093;40;20513;-66
2021/04/18 04:47:16;;;;;;;22.95;10.20;;;9.60;80.20;;;;;;3557223;40;20026;-67
2021/04/18 04:49:42;;;;;;;19.75;9.07;;;9.60;80.20;;;;;;3557152;40;20022;-68
2021/04/18 04:52:09;;;;;;;22.88;9.27;;;9.60;80.20;;;;;;3557083;40;20049;-67
2021/04/18 04:54:39;;;;;;;19.38;9.68;;;9.60;80.80;;;;;;3556899;40;20025;-67
2021/04/18 04:57:06;;;;;;;27.58;9.77;;;9.60;81.00;;;;;;3556769;40;20041;-67
2021/04/18 04:59:32;;;;;;;21.10;10.32;;;9.60;81.00;;;;;;3557066;40;20045;-67
2021/04/18 05:01:58;;;;;;;21.83;9.57;;;9.60;80.80;;;;;;3555667;40;20391;-68
2021/04/18 05:04:23;;;;;;;21.58;9.10;;;9.60;80.60;;;;;;3556692;40;20037;-67
2021/04/18 05:06:49;;;;;;;24.08;9.40;;;9.70;80.90;;;;;;3557841;40;20061;-67
2021/04/18 05:09:15;;;;;;;21.58;9.80;;;9.70;80.90;;;;;;3558469;40;20029;-68
2021/04/18 05:11:41;;;;;;;28.45;10.70;;;9.70;80.70;;;;;;3557746;40;20028;-68
2021/04/18 05:14:06;;;;;;;27.33;10.27;;;9.70;80.70;;;;;;3558679;40;20038;-66
2021/04/18 05:16:32;;;;;;;26.77;10.88;;;9.70;80.40;;;;;;3557758;40;20676;-68
2021/04/18 05:18:58;;;;;;;26.20;10.10;;;9.70;80.40;;;;;;3558422;40;20048;-68
2021/04/18 05:21:24;;;;;;;22.02;11.15;;;9.70;80.50;;;;;;3557948;40;20029;-67
2021/04/18 05:23:51;;;;;;;25.02;11.00;;;9.60;80.40;;;;;;3558416;40;20033;-68
2021/04/18 05:26:16;;;;;;;26.75;10.50;;;9.60;80.90;;;;;;3557981;40;20081;-67
2021/04/18 05:28:42;;;;;;;30.20;10.77;;;9.60;81.40;;;;;;3557729;40;20030;-67
2021/04/18 05:31:08;;;;;;;27.02;11.75;;;9.60;81.50;;;;;;3556585;40;20080;-67
2021/04/18 05:33:34;;;;;;;34.13;12.05;;;9.60;81.70;;;;;;3557648;40;20045;-67
2021/04/18 05:35:59;;;;;;;28.80;11.93;;;9.60;81.60;;;;;;3557845;40;20030;-68
2021/04/18 05:38:25;;;;;;;27.08;11.82;;;9.60;81.50;;;;;;3557527;40;20071;-68
2021/04/18 05:40:51;;;;;;;26.95;12.48;;;9.60;81.10;;;;;;3556884;40;20057;-68
2021/04/18 05:43:16;;;;;;;23.80;12.07;;;9.60;81.30;;;;;;3557483;40;20544;-67
2021/04/18 05:45:42;;;;;;;27.00;12.57;;;9.60;81.40;;;;;;3557785;40;20141;-67
2021/04/18 05:48:08;;;;;;;39.72;14.32;;;9.50;81.60;;;;;;3557809;40;20063;-67
2021/04/18 05:50:34;;;;;;;33.55;13.93;;;9.60;81.60;;;;;;3557516;40;20032;-66
2021/04/18 05:53:00;;;;;;;34.50;14.30;;;9.60;80.90;;;;;;3555556;40;20436;-66
2021/04/18 05:55:28;;;;;;;34.97;14.00;;;9.60;81.40;;;;;;3557038;40;20040;-66
2021/04/18 05:57:54;;;;;;;30.15;15.00;;;9.60;81.90;;;;;;3556991;40;20041;-67
2021/04/18 06:00:20;;;;;;;31.20;14.40;;;9.50;81.60;;;;;;3554907;40;20303;-67
2021/04/18 06:02:45;;;;;;;34.15;15.20;;;9.50;81.80;;;;;;3557681;40;20045;-67
2021/04/18 06:05:12;;;;;;;32.80;14.63;;;9.60;82.40;;;;;;3558056;40;20147;-67
2021/04/18 06:07:38;;;;;;;41.03;16.58;;;9.60;82.60;;;;;;3557424;40;20029;-67
2021/04/18 06:10:04;;;;;;;38.10;16.30;;;9.70;82.30;;;;;;3557785;40;20037;-68
2021/04/18 06:12:30;;;;;;;33.45;16.80;;;9.80;81.80;;;;;;3557549;40;20029;-68
2021/04/18 06:14:56;;;;;;;37.03;15.43;;;9.80;81.30;;;;;;3557987;40;20785;-67
2021/04/18 06:17:21;;;;;;;37.20;17.38;;;9.80;81.40;;;;;;3555593;40;20025;-67
2021/04/18 06:19:47;;;;;;;37.00;15.70;;;9.80;81.10;;;;;;3555873;40;20042;-67
2021/04/18 06:22:12;;;;;;;35.88;15.82;;;9.70;81.60;;;;;;3556906;40;20072;-67
2021/04/18 06:24:38;;;;;;;32.40;15.48;;;9.70;81.40;;;;;;3557439;40;20037;-67
2021/04/18 06:27:04;;;;;;;32.40;15.40;;;9.70;81.60;;;;;;3556669;40;20097;-67
2021/04/18 06:29:30;;;;;;;32.17;15.20;;;9.70;81.00;;;;;;3556950;40;20092;-67
2021/04/18 06:31:56;;;;;;;32.30;14.93;;;9.70;81.90;;;;;;3557042;40;20053;-67
2021/04/18 06:34:23;;;;;;;29.25;15.95;;;9.70;81.60;;;;;;3557462;40;20122;-67
2021/04/18 06:36:50;;;;;;;34.33;15.00;;;9.60;81.80;;;;;;3557212;40;20201;-67
2021/04/18 06:39:16;;;;;;;43.83;20.02;;;9.70;82.20;;;;;;3556105;40;20581;-67
2021/04/18 06:41:50;;;;;;;44.55;20.08;;;9.70;82.00;;;;;;3557149;40;20029;-67
2021/04/18 06:44:16;;;;;;;37.05;18.02;;;9.70;82.00;;;;;;3557596;40;20406;-67
2021/04/18 06:46:43;;;;;;;37.88;16.88;;;9.80;81.40;;;;;;3557053;40;20029;-68
2021/04/18 06:49:10;;;;;;;39.70;18.08;;;9.70;82.10;;;;;;3559095;40;20682;-66
2021/04/18 06:51:37;;;;;;;40.55;17.85;;;9.70;81.70;;;;;;3558590;40;20033;-67
2021/04/18 06:54:03;;;;;;;39.22;17.95;;;9.70;81.50;;;;;;3556948;40;20033;-65
2021/04/18 06:56:29;;;;;;;36.60;19.48;;;9.70;81.60;;;;;;3564401;40;20040;-67
2021/04/18 06:58:59;;;;;;;36.08;17.38;;;9.80;82.50;;;;;;3561649;40;20033;-67
2021/04/18 07:01:25;;;;;;;33.70;17.90;;;9.80;81.60;;;;;;3559363;40;20049;-67
2021/04/18 07:04:07;;;;;;;33.88;16.58;;;9.80;81.00;;;;;;3557958;40;20041;-66
2021/04/18 07:06:51;;;;;;;39.58;17.58;;;9.80;81.00;;;;;;3557811;40;20038;-67
2021/04/18 07:09:24;;;;;;;36.40;16.40;;;9.80;81.00;;;;;;3556853;40;20668;-67
2021/04/18 07:11:52;;;;;;;33.60;16.65;;;9.80;81.80;;;;;;3555323;40;20026;-67
2021/04/18 07:14:21;;;;;;;33.55;17.10;;;9.80;81.80;;;;;;3556996;40;20029;-67
2021/04/18 07:16:47;;;;;;;34.90;15.13;;;9.80;81.40;;;;;;3557795;40;20025;-67
2021/04/18 07:19:23;;;;;;;32.83;15.98;;;9.80;81.50;;;;;;3556276;40;20026;-67
2021/04/18 07:21:51;;;;;;;37.55;17.00;;;9.80;81.80;;;;;;3557312;40;20670;-66
2021/04/18 07:24:19;;;;;;;35.15;17.92;;;9.90;81.80;;;;;;3556708;40;20021;-68
2021/04/18 07:26:55;;;;;;;35.75;16.48;;;10.00;80.90;;;;;;3554536;40;20785;-75
2021/04/18 07:29:21;;;;;;;34.03;16.73;;;10.00;80.40;;;;;;3558002;40;20041;-66
2021/04/18 07:31:48;;;;;;;37.80;17.15;;;10.00;80.90;;;;;;3557964;40;20042;-66
2021/04/18 07:34:21;;;;;;;30.67;16.00;;;10.10;81.50;;;;;;3556969;40;20065;-65
2021/04/18 07:36:51;;;;;;;26.88;15.90;;;10.10;81.00;;;;;;3565568;40;20033;-66
2021/04/18 07:39:18;;;;;;;31.58;16.38;;;10.00;81.20;;;;;;3556127;40;20512;-68
2021/04/18 07:41:46;;;;;;;30.80;16.08;;;10.00;82.00;;;;;;3557455;40;20029;-67
2021/04/18 07:44:17;;;;;;;28.42;16.60;;;10.00;81.70;;;;;;3557126;40;20198;-67
2021/04/18 07:46:48;;;;;;;26.40;14.82;;;10.00;81.50;;;;;;3558159;40;20021;-68
2021/04/18 07:49:15;;;;;;;27.45;15.32;;;10.00;81.60;;;;;;3551868;40;20050;-67
2021/04/18 07:51:46;;;;;;;25.02;14.55;;;10.00;80.90;;;;;;3556367;40;20048;-68
2021/04/18 07:54:14;;;;;;;26.73;15.52;;;10.00;81.30;;;;;;3558102;40;20810;-67
2021/04/18 07:56:48;;;;;;;24.38;13.02;;;10.00;81.80;;;;;;3557471;40;20037;-68
2021/04/18 07:59:15;;;;;;;22.13;13.48;;;10.00;81.70;;;;;;3557372;40;20041;-67
2021/04/18 08:01:42;;;;;;;24.23;14.05;;;10.00;81.60;;;;;;3556116;40;20029;-67
2021/04/18 08:04:09;;;;;;;23.42;12.15;;;10.10;81.20;;;;;;3557296;40;20571;-67
2021/04/18 08:06:39;;;;;;;20.27;12.90;;;10.10;81.60;;;;;;3556456;40;20028;-68
2021/04/18 08:09:24;;;;;;;18.27;11.95;;;10.10;81.50;;;;;;3553536;40;20053;-69
2021/04/18 08:12:11;;;;;;;20.05;13.15;;;10.00;82.00;;;;;;3556586;40;20030;-68
2021/04/18 08:14:40;;;;;;;19.85;12.77;;;10.00;82.40;;;;;;3556911;40;20045;-67
2021/04/18 08:17:12;;;;;;;19.38;11.68;;;10.00;82.60;;;;;;3557260;40;20197;-68
2021/04/18 08:19:52;;;;;;;18.70;10.77;;;10.00;82.00;;;;;;3556640;40;20666;-70
2021/04/18 08:22:18;;;;;;;17.73;11.13;;;9.90;82.50;;;;;;3557892;40;20041;-69
2021/04/18 08:24:43;;;;;;;19.23;11.63;;;9.90;82.60;;;;;;3557901;40;20032;-69
2021/04/18 08:27:11;;;;;;;17.13;11.07;;;9.80;83.50;;;;;;3557294;40;20038;-69
2021/04/18 08:30:10;;;;;;;16.30;10.80;;;9.80;83.80;;;;;;3557156;40;20037;-69
2021/04/18 08:32:48;;;;;;;19.00;11.70;;;9.80;83.90;;;;;;3554104;40;20049;-72
2021/04/18 08:35:17;;;;;;;16.67;10.50;;;9.80;84.20;;;;;;3556253;40;20347;-71
2021/04/18 08:37:43;;;;;;;17.65;11.57;;;9.90;84.50;;;;;;3557046;40;20037;-71
2021/04/18 08:40:09;;;;;;;15.65;9.90;;;9.90;84.30;;;;;;3555536;40;20067;-71
2021/04/18 08:42:37;;;;;;;16.08;9.93;;;9.90;84.40;;;;;;3549470;40;20032;-72
2021/04/18 08:45:04;;;;;;;15.93;9.05;;;10.00;84.40;;;;;;3558683;40;20033;-72
2021/04/18 08:47:32;;;;;;;13.98;9.57;;;10.00;84.00;;;;;;3558940;40;20393;-72
2021/04/18 08:50:14;;;;;;;13.75;9.18;;;10.00;83.60;;;;;;3558599;40;20018;-72
2021/04/18 08:52:40;;;;;;;12.65;8.27;;;10.00;83.60;;;;;;3557613;40;20712;-72
2021/04/18 08:55:08;;;;;;;13.80;8.63;;;9.90;83.20;;;;;;3558685;40;20041;-72
2021/04/18 08:57:34;;;;;;;9.52;7.20;;;9.90;84.00;;;;;;3558910;40;20025;-72
2021/04/18 09:00:05;;;;;;;12.65;7.80;;;9.90;84.10;;;;;;3558760;40;20088;-72
2021/04/18 09:02:31;;;;;;;11.55;8.30;;;9.90;84.10;;;;;;3558734;40;20509;-72
2021/04/18 09:04:59;;;;;;;14.05;8.13;;;9.90;84.00;;;;;;3559749;40;20041;-69
2021/04/18 09:07:30;;;;;;;19.25;12.05;;;9.90;84.40;;;;;;3559570;40;20025;-71
2021/04/18 09:09:58;;;;;;;15.60;9.38;;;9.90;84.80;;;;;;3559259;40;20026;-72
2021/04/18 09:12:24;;;;;;;14.38;9.18;;;9.90;84.70;;;;;;3558165;40;20041;-73
2021/04/18 09:14:50;;;;;;;12.93;8.13;;;10.00;84.30;;;;;;3557754;40;20085;-73
2021/04/18 09:17:24;;;;;;;12.38;8.38;;;10.00;84.60;;;;;;3557748;40;20041;-72
2021/04/18 09:19:57;;;;;;;16.05;11.23;;;10.10;84.70;;;;;;3558446;40;20330;-72
2021/04/18 09:22:31;;;;;;;12.38;8.63;;;10.20;85.00;;;;;;3557109;40;20318;-71
2021/04/18 09:25:01;;;;;;;11.88;8.15;;;10.30;85.40;;;;;;3558520;40;20044;-71
2021/04/18 09:27:38;;;;;;;11.25;8.27;;;10.50;85.20;;;;;;3557634;40;20044;-69
2021/04/18 09:30:11;;;;;;;9.43;6.97;;;10.70;84.50;;;;;;3558447;40;20408;-71
2021/04/18 09:32:42;;;;;;;10.93;7.32;;;10.70;82.60;;;;;;3557880;40;20049;-77
2021/04/18 09:35:09;;;;;;;8.20;6.38;;;10.80;82.50;;;;;;3557658;40;20045;-69
2021/04/18 09:37:38;;;;;;;8.95;6.32;;;10.90;82.60;;;;;;3557742;40;20647;-67
2021/04/18 09:40:16;;;;;;;11.18;7.97;;;10.90;82.30;;;;;;3557756;40;20333;-69
2021/04/18 09:42:48;;;;;;;8.52;6.78;;;10.90;82.40;;;;;;3557835;40;20624;-70
2021/04/18 09:45:17;;;;;;;8.73;6.43;;;10.90;82.60;;;;;;3558116;40;20029;-68
2021/04/18 09:47:47;;;;;;;9.30;6.53;;;10.90;82.50;;;;;;3557762;40;20453;-68
2021/04/18 09:50:22;;;;;;;9.70;7.15;;;10.80;82.30;;;;;;3554795;40;20049;-68
2021/04/18 09:52:49;;;;;;;9.95;6.90;;;10.80;82.10;;;;;;3557248;40;20050;-71
2021/04/18 09:55:18;;;;;;;10.00;7.57;;;10.70;82.30;;;;;;3557534;40;20026;-70
2021/04/18 09:57:54;;;;;;;8.30;6.68;;;10.70;82.80;;;;;;3558054;40;20026;-70
2021/04/18 10:00:25;;;;;;;7.93;5.53;;;10.60;82.30;;;;;;3557228;40;20030;-68
2021/04/18 10:02:57;;;;;;;9.00;6.35;;;10.60;82.90;;;;;;3556684;40;20595;-70
2021/04/18 10:05:23;;;;;;;11.38;6.75;;;10.50;83.50;;;;;;3557580;40;20399;-72
2021/04/18 10:07:49;;;;;;;10.60;6.68;;;10.50;83.90;;;;;;3558173;40;20662;-67
2021/04/18 10:10:31;;;;;;;9.18;6.57;;;10.50;83.70;;;;;;3557925;40;20119;-68
2021/04/18 10:12:58;;;;;;;8.93;6.78;;;10.40;84.40;;;;;;3557837;40;20880;-66
2021/04/18 10:15:24;;;;;;;8.82;6.70;;;10.30;84.90;;;;;;3557113;40;20441;-68
2021/04/18 10:17:49;;;;;;;8.50;6.93;;;10.30;85.20;;;;;;3558158;40;20033;-66
2021/04/18 10:20:26;;;;;;;9.68;7.68;;;10.40;84.90;;;;;;3557849;40;20048;-67
2021/04/18 10:23:09;;;;;;;10.32;7.53;;;10.40;85.20;;;;;;3556447;40;20041;-66
2021/04/18 10:25:37;;;;;;;10.85;7.15;;;10.40;83.20;;;;;;3556063;40;20028;-66
2021/04/18 10:28:04;;;;;;;10.15;7.07;;;10.40;83.90;;;;;;3556808;40;20010;-66
2021/04/18 10:30:30;;;;;;;9.15;7.07;;;10.40;83.70;;;;;;3554414;40;20030;-67
2021/04/18 10:32:57;;;;;;;9.52;7.47;;;10.50;85.20;;;;;;3556144;40;20092;-66
2021/04/18 10:35:23;;;;;;;11.80;7.60;;;10.60;85.60;;;;;;3556658;40;20028;-67
2021/04/18 10:37:49;;;;;;;11.23;8.15;;;10.80;84.20;;;;;;3555721;40;20124;-67
2021/04/18 10:40:16;;;;;;;10.32;7.95;;;10.90;84.00;;;;;;3556492;40;20029;-67
2021/04/18 10:42:42;;;;;;;11.98;8.23;;;11.10;84.00;;;;;;3556265;40;20032;-67
2021/04/18 10:45:10;;;;;;;11.23;8.02;;;11.30;83.70;;;;;;3557375;40;20022;-67
2021/04/18 10:47:36;;;;;;;10.13;7.40;;;11.50;81.90;;;;;;3557897;40;20045;-67
2021/04/18 10:50:03;;;;;;;10.55;7.63;;;11.60;82.80;;;;;;3556838;40;20025;-67
2021/04/18 10:52:30;;;;;;;9.23;7.07;;;11.70;81.40;;;;;;3557067;40;20737;-67
2021/04/18 10:54:56;;;;;;;9.23;7.53;;;11.80;81.00;;;;;;3557075;40;20116;-66
2021/04/18 10:57:22;;;;;;;9.07;7.05;;;11.90;81.10;;;;;;3557641;40;20040;-66
2021/04/18 10:59:48;;;;;;;11.38;8.07;;;11.90;80.10;;;;;;3555045;40;20052;-66
2021/04/18 11:02:14;;;;;;;10.88;8.63;;;12.00;81.10;;;;;;3557421;40;20030;-67
2021/04/18 11:04:40;;;;;;;11.60;8.45;;;12.10;81.40;;;;;;3557086;40;20040;-67
2021/04/18 11:07:07;;;;;;;11.07;8.02;;;12.20;81.00;;;;;;3556791;40;20084;-66
2021/04/18 11:09:33;;;;;;;7.97;6.90;;;12.40;79.30;;;;;;3556577;40;20040;-67
2021/04/18 11:11:59;;;;;;;9.32;8.23;;;12.50;79.50;;;;;;3558696;40;20059;-66
2021/04/18 11:14:26;;;;;;;9.85;7.65;;;12.60;79.10;;;;;;3557970;40;20436;-66
2021/04/18 11:16:52;;;;;;;20.98;11.57;;;12.80;79.20;;;;;;3557867;40;20037;-68
2021/04/18 11:19:17;;;;;;;10.50;7.75;;;12.90;78.80;;;;;;3557520;40;20032;-75
2021/04/18 11:21:43;;;;;;;9.63;7.85;;;13.20;77.90;;;;;;3556755;40;20033;-68
2021/04/18 11:24:10;;;;;;;11.38;7.55;;;13.40;77.80;;;;;;3556411;40;20034;-68
2021/04/18 11:26:35;;;;;;;10.27;8.23;;;13.40;76.90;;;;;;3557437;40;20034;-69
2021/04/18 11:29:02;;;;;;;10.60;7.85;;;13.50;76.80;;;;;;3555923;40;20044;-67
2021/04/18 11:31:28;;;;;;;10.98;7.93;;;13.60;74.30;;;;;;3555574;40;20067;-67
2021/04/18 11:33:54;;;;;;;10.00;7.80;;;13.70;75.50;;;;;;3556269;40;20498;-68
2021/04/18 11:36:20;;;;;;;10.70;7.90;;;13.70;74.30;;;;;;3555305;40;20049;-66
2021/04/18 11:38:46;;;;;;;13.13;8.80;;;13.60;75.80;;;;;;3555816;40;20026;-66
2021/04/18 11:41:12;;;;;;;11.55;8.55;;;13.70;75.60;;;;;;3557337;40;20073;-69
2021/04/18 11:43:38;;;;;;;10.98;8.75;;;13.80;74.00;;;;;;3558114;40;20026;-70
2021/04/18 11:46:06;;;;;;;10.52;8.40;;;13.80;75.80;;;;;;3557640;40;20069;-69
2021/04/18 11:48:32;;;;;;;9.32;7.43;;;13.90;75.80;;;;;;3557987;40;20053;-68
2021/04/18 11:50:58;;;;;;;11.27;7.60;;;13.90;74.10;;;;;;3556951;40;20042;-69
2021/04/18 11:53:23;;;;;;;11.88;8.43;;;13.70;74.80;;;;;;3557790;40;20794;-68
2021/04/18 11:55:49;;;;;;;10.70;8.05;;;13.60;74.40;;;;;;3558690;40;20032;-70
2021/04/18 11:58:15;;;;;;;11.18;7.22;;;13.50;75.00;;;;;;3557787;40;20045;-69
2021/04/18 12:00:41;;;;;;;12.90;8.88;;;13.50;76.70;;;;;;3557910;40;20704;-68
2021/04/18 12:03:07;;;;;;;11.52;8.00;;;13.50;74.10;;;;;;3558270;40;20026;-69
2021/04/18 12:05:36;;;;;;;10.50;8.18;;;13.40;75.60;;;;;;3557031;40;20732;-69
2021/04/18 12:08:02;;;;;;;10.60;8.27;;;13.30;76.40;;;;;;3558209;40;20039;-68
2021/04/18 12:10:28;;;;;;;11.55;7.80;;;13.40;76.90;;;;;;3557820;40;20033;-68
2021/04/18 12:12:53;;;;;;;11.55;7.60;;;13.40;76.50;;;;;;3556635;40;20054;-69
2021/04/18 12:15:19;;;;;;;9.82;7.63;;;13.50;77.20;;;;;;3557613;40;20041;-69
2021/04/18 12:17:45;;;;;;;11.85;7.28;;;13.40;75.10;;;;;;3559305;40;20073;-69
2021/04/18 12:20:13;;;;;;;9.55;7.35;;;13.40;76.70;;;;;;3559145;40;20026;-69
2021/04/18 12:22:40;;;;;;;12.23;7.95;;;13.30;76.80;;;;;;3557239;40;20033;-69
2021/04/18 12:25:09;;;;;;;10.73;8.05;;;13.40;78.10;;;;;;3559303;40;20033;-65
2021/04/18 12:27:34;;;;;;;11.18;8.10;;;13.50;76.40;;;;;;3559219;40;20025;-66
2021/04/18 12:30:00;;;;;;;10.38;7.70;;;13.50;75.40;;;;;;3558262;40;20022;-67
2021/04/18 12:32:26;;;;;;;14.75;8.13;;;13.50;76.20;;;;;;3559035;40;20072;-66
2021/04/18 12:34:52;;;;;;;9.98;8.05;;;13.50;76.80;;;;;;3557761;40;20425;-66
2021/04/18 12:37:17;;;;;;;9.15;7.72;;;13.60;77.20;;;;;;3558017;40;20026;-67
2021/04/18 12:39:45;;;;;;;10.90;8.75;;;13.50;76.50;;;;;;3558910;40;20036;-66
2021/04/18 12:42:10;;;;;;;9.55;7.60;;;13.50;77.10;;;;;;3558935;40;20857;-69
2021/04/18 12:44:36;;;;;;;8.82;7.53;;;13.60;76.80;;;;;;3558610;40;20025;-69